Time;durP1;ratioP1;P1;durP2;ratioP2;P2;SDS_P1;SDS_P2;PMS_P1;PMS_P2;Temp;Humidity;BMP_temperature;BMP_pressure;BME280_temperature;BME280_humidity;BME280_pressure;Samples;Min_cycle;Max_cycle;Signal;HPM_P1;HPM_P2
2022/07/09 00:00:23;;;;;;;4.95;3.55;;;;;;;12.99;88.71;99686.19;4122519;28;20428;-72
2022/07/09 00:02:23;;;;;;;6.07;3.88;;;;;;;13.00;89.04;99687.00;4121107;28;20076;-72
2022/07/09 00:04:24;;;;;;;4.10;3.47;;;;;;;13.02;89.34;99685.44;4119877;28;20067;-72
2022/07/09 00:06:24;;;;;;;5.15;2.90;;;;;;;13.00;89.05;99676.69;4120641;28;20034;-72
2022/07/09 00:08:25;;;;;;;5.15;2.97;;;;;;;13.04;88.24;99676.75;4121887;28;20113;-71
2022/07/09 00:10:25;;;;;;;4.43;3.67;;;;;;;13.10;86.97;99675.28;4122850;28;20030;-72
2022/07/09 00:12:25;;;;;;;3.92;2.75;;;;;;;13.10;87.85;99672.50;4119956;28;20085;-72
2022/07/09 00:14:26;;;;;;;3.92;2.88;;;;;;;13.09;88.41;99668.13;4121235;28;20426;-72
2022/07/09 00:16:26;;;;;;;4.15;3.28;;;;;;;13.08;88.60;99669.31;4120414;28;20357;-72
2022/07/09 00:18:27;;;;;;;5.32;3.00;;;;;;;13.12;87.03;99672.94;4119846;28;20116;-72
2022/07/09 00:20:27;;;;;;;5.32;3.53;;;;;;;13.10;88.27;99675.28;4122158;28;20070;-72
2022/07/09 00:22:28;;;;;;;4.38;3.13;;;;;;;13.13;87.59;99671.75;4121485;28;20029;-72
2022/07/09 00:24:28;;;;;;;4.05;2.50;;;;;;;13.15;88.45;99667.44;4119732;28;20045;-72
2022/07/09 00:26:28;;;;;;;4.18;2.80;;;;;;;13.12;89.14;99668.19;4118960;28;20073;-72
2022/07/09 00:28:29;;;;;;;3.63;2.70;;;;;;;13.17;87.62;99656.78;4119780;28;20479;-72
2022/07/09 00:30:29;;;;;;;4.50;2.88;;;;;;;13.24;90.38;99656.16;4120999;28;21193;-72
2022/07/09 00:32:30;;;;;;;4.30;2.72;;;;;;;13.31;88.77;99658.25;4119127;28;20030;-72
2022/07/09 00:34:30;;;;;;;5.45;2.78;;;;;;;13.43;86.53;99649.75;4120044;28;20510;-72
2022/07/09 00:36:31;;;;;;;2.38;2.13;;;;;;;13.58;84.98;99651.63;4120037;28;20033;-72
2022/07/09 00:38:31;;;;;;;2.97;2.30;;;;;;;13.67;84.95;99648.59;4120903;28;20032;-72
2022/07/09 00:40:32;;;;;;;2.65;2.33;;;;;;;13.69;85.51;99643.47;4121710;28;20557;-72
2022/07/09 00:42:32;;;;;;;4.68;2.40;;;;;;;13.74;83.86;99646.75;4120571;28;20410;-72
2022/07/09 00:44:33;;;;;;;2.75;2.03;;;;;;;13.75;84.44;99648.38;4120360;28;20030;-71
2022/07/09 00:46:33;;;;;;;4.55;2.30;;;;;;;13.83;83.40;99645.72;4120083;28;20150;-71
2022/07/09 00:48:34;;;;;;;3.90;2.63;;;;;;;13.80;85.25;99646.44;4120684;28;20054;-71
2022/07/09 00:50:35;;;;;;;3.63;2.58;;;;;;;13.72;88.62;99643.53;4119764;28;20034;-71
2022/07/09 00:52:37;;;;;;;3.30;2.70;;;;;;;13.69;86.83;99638.72;4119244;28;20038;-71
2022/07/09 00:54:39;;;;;;;5.38;2.53;;;;;;;13.73;86.69;99635.97;4121067;28;20064;-71
2022/07/09 00:56:40;;;;;;;3.50;2.13;;;;;;;13.74;86.89;99640.38;4120360;28;20471;-72
2022/07/09 00:58:42;;;;;;;5.65;2.70;;;;;;;13.76;89.08;99632.47;4118852;28;20040;-72
2022/07/09 01:00:43;;;;;;;4.95;2.70;;;;;;;13.79;89.77;99637.28;4119360;28;20030;-72
2022/07/09 01:02:45;;;;;;;4.97;2.25;;;;;;;13.83;88.74;99635.38;4120341;28;20038;-72
2022/07/09 01:04:45;;;;;;;4.15;2.55;;;;;;;13.85;89.20;99627.47;4118517;28;20038;-72
2022/07/09 01:06:45;;;;;;;2.70;2.30;;;;;;;13.88;88.13;99628.69;4119590;28;20096;-72
2022/07/09 01:08:46;;;;;;;3.42;2.40;;;;;;;13.88;88.70;99623.91;4120978;28;20030;-72
2022/07/09 01:10:48;;;;;;;3.03;2.20;;;;;;;13.94;90.33;99618.84;4121373;28;20042;-72
2022/07/09 01:12:48;;;;;;;4.53;2.37;;;;;;;13.96;90.34;99617.31;4119186;28;20034;-72
2022/07/09 01:14:49;;;;;;;5.22;3.13;;;;;;;14.00;90.32;99609.03;4119241;28;20498;-72
2022/07/09 01:17:00;;;;;;;5.68;2.50;;;;;;;14.02;90.05;99618.59;4120833;28;20026;-72
2022/07/09 01:19:01;;;;;;;3.50;2.30;;;;;;;14.05;90.50;99614.25;4118398;28;20062;-72
2022/07/09 01:21:01;;;;;;;4.10;2.80;;;;;;;14.10;91.01;99619.50;4119858;28;20045;-72
2022/07/09 01:23:02;;;;;;;4.60;2.70;;;;;;;14.13;90.67;99620.72;4119528;28;20045;-72
2022/07/09 01:25:08;;;;;;;3.53;2.47;;;;;;;14.18;90.36;99615.66;4120440;28;20035;-72
2022/07/09 01:27:08;;;;;;;3.78;2.30;;;;;;;14.23;89.29;99606.16;4119404;28;20404;-72
2022/07/09 01:29:10;;;;;;;3.72;2.45;;;;;;;14.26;89.17;99600.66;4119537;28;20045;-72
2022/07/09 01:31:10;;;;;;;6.15;2.53;;;;;;;14.32;90.84;99604.75;4120409;28;20508;-72
2022/07/09 01:33:12;;;;;;;3.53;2.45;;;;;;;14.31;92.07;99616.22;4121166;28;20034;-72
2022/07/09 01:35:13;;;;;;;8.93;2.80;;;;;;;14.30;94.12;99609.06;4119448;28;20346;-72
2022/07/09 01:37:13;;;;;;;3.63;2.45;;;;;;;14.22;96.05;99601.78;4117321;28;20038;-72
2022/07/09 01:39:13;;;;;;;4.85;2.63;;;;;;;14.19;95.88;99597.78;4117746;28;20475;-72
2022/07/09 01:41:14;;;;;;;8.35;3.08;;;;;;;14.16;98.23;99606.88;4118483;28;20042;-72
2022/07/09 01:43:15;;;;;;;5.88;2.90;;;;;;;14.11;96.05;99598.84;4119798;28;20427;-72
2022/07/09 01:45:16;;;;;;;4.05;2.60;;;;;;;14.11;96.65;99596.06;4125306;28;20035;-72
2022/07/09 01:47:16;;;;;;;4.28;2.75;;;;;;;14.09;97.32;99592.88;4124640;28;20060;-72
2022/07/09 01:49:17;;;;;;;4.55;2.40;;;;;;;14.10;97.09;99588.91;4124446;28;20037;-72
2022/07/09 01:51:17;;;;;;;7.78;2.55;;;;;;;14.10;95.76;99585.31;4124709;28;20042;-72
2022/07/09 01:53:17;;;;;;;3.33;2.22;;;;;;;14.10;96.56;99591.69;4124196;28;20481;-72
2022/07/09 01:55:18;;;;;;;4.63;2.65;;;;;;;14.07;98.36;99592.44;4125375;28;20467;-72
2022/07/09 01:57:18;;;;;;;4.47;2.60;;;;;;;14.05;99.09;99590.00;4125105;28;20964;-72
2022/07/09 01:59:19;;;;;;;4.25;2.70;;;;;;;14.04;99.20;99580.06;4124827;28;20375;-71
2022/07/09 02:01:20;;;;;;;4.80;2.85;;;;;;;14.00;98.42;99582.00;4123846;28;20458;-72
2022/07/09 02:03:22;;;;;;;3.50;2.65;;;;;;;14.00;98.18;99581.19;4125258;28;20298;-72
2022/07/09 02:05:23;;;;;;;4.10;2.63;;;;;;;13.99;98.55;99576.81;4125906;28;20513;-72
2022/07/09 02:07:23;;;;;;;5.38;2.92;;;;;;;13.95;99.86;99582.31;4124474;28;20369;-71
2022/07/09 02:09:24;;;;;;;8.00;2.90;;;;;;;13.96;100.00;99581.13;4124545;28;20347;-71
2022/07/09 02:11:24;;;;;;;7.97;3.00;;;;;;;13.89;100.00;99571.88;4124979;28;20034;-71
2022/07/09 02:13:24;;;;;;;6.60;3.15;;;;;;;13.85;100.00;99571.81;4124402;28;20037;-71
2022/07/09 02:15:25;;;;;;;7.65;3.28;;;;;;;13.81;100.00;99567.38;4124413;28;20034;-72
2022/07/09 02:17:25;;;;;;;6.00;3.45;;;;;;;13.76;100.00;99563.75;4126551;28;20026;-71
2022/07/09 02:19:25;;;;;;;4.85;3.05;;;;;;;13.72;100.00;99573.19;4123534;28;20022;-72
2022/07/09 02:21:26;;;;;;;4.95;2.70;;;;;;;13.72;100.00;99574.00;4124560;28;20118;-72
2022/07/09 02:23:26;;;;;;;5.43;3.00;;;;;;;13.73;100.00;99566.44;4125785;28;20041;-72
2022/07/09 02:25:27;;;;;;;4.60;3.25;;;;;;;13.73;100.00;99563.66;4124960;28;20037;-72
2022/07/09 02:27:28;;;;;;;7.03;3.40;;;;;;;13.69;100.00;99573.94;4124105;28;20030;-72
2022/07/09 02:29:28;;;;;;;6.97;2.75;;;;;;;13.63;100.00;99565.09;4123909;28;20032;-71
2022/07/09 02:31:28;;;;;;;5.45;2.97;;;;;;;13.60;100.00;99570.63;4126147;28;20026;-72
2022/07/09 02:33:31;;;;;;;4.57;3.00;;;;;;;13.56;100.00;99558.63;4123694;28;20085;-72
2022/07/09 02:35:31;;;;;;;6.88;2.70;;;;;;;13.57;100.00;99568.56;4125197;28;20034;-72
2022/07/09 02:37:32;;;;;;;4.53;3.03;;;;;;;13.55;100.00;99571.72;4125210;28;20317;-72
2022/07/09 02:39:32;;;;;;;5.35;3.20;;;;;;;13.51;99.62;99564.50;4124204;28;20022;-72
2022/07/09 02:41:33;;;;;;;3.88;2.97;;;;;;;13.49;100.00;99562.91;4123957;28;20041;-72
2022/07/09 02:43:33;;;;;;;5.57;2.70;;;;;;;13.52;100.00;99563.34;4124356;28;20042;-72
2022/07/09 02:45:34;;;;;;;5.93;2.58;;;;;;;13.52;99.47;99566.91;4124154;28;20037;-72
2022/07/09 02:47:34;;;;;;;4.72;3.10;;;;;;;13.51;97.62;99565.31;4122315;28;20030;-72
2022/07/09 02:49:34;;;;;;;6.95;3.08;;;;;;;13.51;98.63;99564.50;4124376;28;20101;-71
2022/07/09 02:51:35;;;;;;;3.05;2.75;;;;;;;13.48;100.00;99566.84;4126440;28;20430;-71
2022/07/09 02:53:35;;;;;;;7.03;3.25;;;;;;;13.45;100.00;99575.13;4123825;28;20198;-71
2022/07/09 02:55:35;;;;;;;6.47;3.63;;;;;;;13.43;100.00;99572.72;4123014;28;20042;-72
2022/07/09 02:57:36;;;;;;;5.68;3.15;;;;;;;13.39;100.00;99565.47;4121115;28;20466;-72
2022/07/09 02:59:36;;;;;;;6.38;3.13;;;;;;;13.36;100.00;99571.78;4121414;28;20030;-72
2022/07/09 03:01:36;;;;;;;9.88;2.92;;;;;;;13.28;100.00;99567.28;4121826;28;20030;-72
2022/07/09 03:03:37;;;;;;;7.55;3.10;;;;;;;13.27;100.00;99572.03;4120575;28;20467;-72
2022/07/09 03:05:37;;;;;;;6.47;3.03;;;;;;;13.25;99.99;99563.28;4122501;28;20038;-72
2022/07/09 03:07:38;;;;;;;6.63;2.92;;;;;;;13.23;100.00;99573.13;4121521;28;20117;-72
2022/07/09 03:09:38;;;;;;;5.38;3.50;;;;;;;13.18;100.00;99563.91;4121619;28;20042;-72
2022/07/09 03:11:38;;;;;;;5.15;2.90;;;;;;;13.19;99.04;99568.31;4121715;28;20117;-72
2022/07/09 03:13:39;;;;;;;4.45;2.90;;;;;;;13.21;98.55;99559.63;4122629;28;20062;-72
2022/07/09 03:15:39;;;;;;;4.30;2.85;;;;;;;13.20;98.01;99560.78;4121528;28;20513;-72
2022/07/09 03:17:39;;;;;;;4.88;2.92;;;;;;;13.23;100.00;99562.00;4121727;28;20045;-72
2022/07/09 03:19:40;;;;;;;3.97;3.30;;;;;;;13.19;100.00;99556.38;4121159;28;20030;-71
2022/07/09 03:21:40;;;;;;;6.38;3.30;;;;;;;13.19;100.00;99553.59;4121659;28;20387;-71
2022/07/09 03:23:40;;;;;;;7.40;3.47;;;;;;;13.17;100.00;99558.72;4121949;28;20061;-71
2022/07/09 03:25:41;;;;;;;4.57;3.30;;;;;;;13.14;100.00;99551.09;4121876;28;20040;-72
2022/07/09 03:27:41;;;;;;;5.35;3.55;;;;;;;13.12;100.00;99551.47;4121582;28;20038;-72
2022/07/09 03:29:42;;;;;;;3.67;3.22;;;;;;;13.11;100.00;99549.88;4120985;28;20035;-72
2022/07/09 03:31:42;;;;;;;7.10;3.67;;;;;;;13.12;100.00;99545.94;4121629;28;20026;-72
2022/07/09 03:33:42;;;;;;;5.70;3.75;;;;;;;13.15;100.00;99552.72;4120927;28;20030;-72
2022/07/09 03:35:43;;;;;;;4.28;3.72;;;;;;;13.19;100.00;99551.66;4121648;28;20348;-72
2022/07/09 03:37:43;;;;;;;5.45;3.33;;;;;;;13.20;100.00;99542.13;4121643;28;20521;-72
2022/07/09 03:39:44;;;;;;;4.55;3.40;;;;;;;13.24;100.00;99545.00;4119408;28;20044;-72
2022/07/09 03:41:45;;;;;;;5.00;3.70;;;;;;;13.26;100.00;99547.41;4120345;28;20026;-72
2022/07/09 03:43:45;;;;;;;6.72;3.63;;;;;;;13.26;100.00;99547.41;4122284;28;20030;-72
2022/07/09 03:45:46;;;;;;;5.78;3.17;;;;;;;13.26;100.00;99553.75;4120468;28;20030;-71
2022/07/09 03:47:48;;;;;;;4.38;3.42;;;;;;;13.28;100.00;99554.19;4120795;28;20034;-72
2022/07/09 03:49:48;;;;;;;4.15;3.45;;;;;;;13.28;100.00;99550.59;4120072;28;20030;-72
2022/07/09 03:51:49;;;;;;;4.30;3.42;;;;;;;13.31;100.00;99563.75;4120837;28;20129;-71
2022/07/09 03:53:49;;;;;;;6.63;3.97;;;;;;;13.28;100.00;99556.97;4120060;28;20173;-71
2022/07/09 03:55:49;;;;;;;5.45;3.30;;;;;;;13.27;100.00;99555.38;4120630;28;20415;-71
2022/07/09 03:57:50;;;;;;;3.97;3.10;;;;;;;13.20;100.00;99544.91;4122165;28;20068;-72
2022/07/09 03:59:50;;;;;;;6.75;3.38;;;;;;;13.19;100.00;99548.03;4118877;28;20506;-72
2022/07/09 04:01:51;;;;;;;4.90;3.45;;;;;;;13.16;100.00;99546.00;4120200;28;20038;-72
2022/07/09 04:03:51;;;;;;;4.82;3.35;;;;;;;13.12;100.00;99540.38;4121698;28;20062;-71
2022/07/09 04:05:51;;;;;;;4.88;3.50;;;;;;;13.13;100.00;99547.53;4120087;28;20037;-72
2022/07/09 04:07:54;;;;;;;5.32;3.78;;;;;;;13.14;100.00;99542.78;4120852;28;20665;-72
2022/07/09 04:09:55;;;;;;;6.00;3.53;;;;;;;13.13;100.00;99549.50;4119977;28;20270;-71
2022/07/09 04:11:55;;;;;;;5.45;3.28;;;;;;;13.10;100.00;99545.50;4121617;28;20265;-71
2022/07/09 04:13:56;;;;;;;8.10;3.58;;;;;;;13.07;100.00;99550.97;4119893;28;20142;-71
2022/07/09 04:15:56;;;;;;;5.28;3.55;;;;;;;13.07;100.00;99551.78;4120846;28;20357;-71
2022/07/09 04:17:56;;;;;;;4.18;3.45;;;;;;;13.09;100.00;99549.47;4120437;28;20041;-71
2022/07/09 04:19:57;;;;;;;6.47;3.65;;;;;;;13.14;100.00;99548.34;4119058;28;20041;-72
2022/07/09 04:21:57;;;;;;;6.43;3.75;;;;;;;13.16;100.00;99551.56;4120246;28;20050;-72
2022/07/09 04:23:58;;;;;;;4.47;3.65;;;;;;;13.20;100.00;99560.78;4120633;28;20096;-72
2022/07/09 04:25:58;;;;;;;5.22;3.80;;;;;;;13.25;100.00;99554.13;4121212;28;20035;-72
2022/07/09 04:28:01;;;;;;;6.88;4.03;;;;;;;13.32;100.00;99563.41;4120553;28;20422;-72
2022/07/09 04:30:02;;;;;;;7.18;4.35;;;;;;;13.36;100.00;99550.34;4119218;28;20043;-72
2022/07/09 04:32:02;;;;;;;4.75;3.55;;;;;;;13.41;100.00;99560.38;4120035;28;20144;-72
2022/07/09 04:34:03;;;;;;;6.03;4.20;;;;;;;13.48;100.00;99564.06;4120083;28;20034;-72
2022/07/09 04:36:04;;;;;;;7.45;3.83;;;;;;;13.54;100.00;99561.78;4120342;28;20050;-72
2022/07/09 04:38:04;;;;;;;5.45;3.38;;;;;;;13.58;100.00;99559.06;4122759;28;20355;-72
2022/07/09 04:40:05;;;;;;;5.75;4.10;;;;;;;13.67;100.00;99565.97;4120764;28;20136;-71
2022/07/09 04:42:05;;;;;;;5.90;4.03;;;;;;;13.76;100.00;99576.84;4119671;28;20126;-71
2022/07/09 04:44:07;;;;;;;5.22;4.68;;;;;;;13.83;100.00;99568.63;4119264;28;20321;-72
2022/07/09 04:46:07;;;;;;;5.18;3.85;;;;;;;13.91;100.00;99580.66;4121383;28;20478;-72
2022/07/09 04:48:07;;;;;;;6.82;4.13;;;;;;;13.94;100.00;99577.13;4119665;28;20038;-72
2022/07/09 04:50:09;;;;;;;4.18;3.78;;;;;;;13.96;100.00;99570.00;4120169;28;20370;-72
2022/07/09 04:52:09;;;;;;;6.32;4.03;;;;;;;13.98;100.00;99572.41;4119824;28;20532;-72
2022/07/09 04:54:10;;;;;;;4.65;3.78;;;;;;;14.03;100.00;99561.75;4120398;28;20061;-72
2022/07/09 04:56:10;;;;;;;5.55;3.92;;;;;;;14.11;100.00;99571.03;4119724;28;20466;-72
2022/07/09 04:58:10;;;;;;;5.93;3.85;;;;;;;14.16;100.00;99565.16;4119147;28;20201;-72
2022/07/09 05:00:11;;;;;;;5.95;4.10;;;;;;;14.21;100.00;99570.38;4119222;28;20423;-72
2022/07/09 05:02:12;;;;;;;6.25;4.47;;;;;;;14.26;100.00;99572.03;4119771;28;20070;-72
2022/07/09 05:04:12;;;;;;;7.22;5.15;;;;;;;14.31;100.00;99578.09;4120777;28;20056;-72
2022/07/09 05:06:17;;;;;;;4.50;3.75;;;;;;;14.34;100.00;99573.75;4120877;28;20041;-72
2022/07/09 05:08:18;;;;;;;6.50;4.60;;;;;;;14.38;100.00;99562.63;4119207;28;20034;-72
2022/07/09 05:10:19;;;;;;;7.80;4.20;;;;;;;14.40;100.00;99572.25;4119069;28;20293;-72
2022/07/09 05:12:19;;;;;;;6.57;4.35;;;;;;;14.44;100.00;99566.72;4119931;28;20039;-72
2022/07/09 05:14:20;;;;;;;4.45;3.83;;;;;;;14.49;100.00;99574.78;4119778;28;20117;-72
2022/07/09 05:16:20;;;;;;;6.70;4.50;;;;;;;14.52;100.00;99569.25;4119916;28;20065;-72
2022/07/09 05:18:21;;;;;;;6.60;4.53;;;;;;;14.57;100.00;99565.34;4120000;28;20483;-71
2022/07/09 05:20:21;;;;;;;8.07;4.45;;;;;;;14.61;100.00;99563.38;4118802;28;20512;-71
2022/07/09 05:22:22;;;;;;;6.32;4.70;;;;;;;14.60;100.00;99562.56;4120044;28;20422;-71
2022/07/09 05:24:23;;;;;;;5.43;4.40;;;;;;;14.59;100.00;99560.97;4120474;28;20401;-71
2022/07/09 05:26:23;;;;;;;6.78;4.80;;;;;;;14.62;100.00;99562.19;4120023;28;20062;-71
2022/07/09 05:28:23;;;;;;;4.78;3.92;;;;;;;14.68;100.00;99560.69;4119534;28;20593;-71
2022/07/09 05:30:24;;;;;;;7.28;4.63;;;;;;;14.66;100.00;99568.63;4119374;28;20475;-71
2022/07/09 05:32:24;;;;;;;7.03;4.30;;;;;;;14.71;100.00;99567.47;4119688;28;20437;-71
2022/07/09 05:34:25;;;;;;;6.03;4.93;;;;;;;14.71;100.00;99564.69;4119168;28;20108;-71
2022/07/09 05:36:25;;;;;;;6.20;4.47;;;;;;;14.76;100.00;99562.38;4119845;28;20046;-71
2022/07/09 05:38:25;;;;;;;5.28;4.28;;;;;;;14.77;100.00;99555.63;4120445;28;20042;-72
2022/07/09 05:40:26;;;;;;;5.25;4.40;;;;;;;14.84;100.00;99554.91;4118822;28;20019;-72
2022/07/09 05:42:26;;;;;;;6.20;4.40;;;;;;;14.88;100.00;99558.53;4118600;28;20328;-72
2022/07/09 05:44:27;;;;;;;6.78;4.43;;;;;;;14.96;100.00;99553.84;4115873;28;20041;-72
2022/07/09 05:46:27;;;;;;;5.88;4.38;;;;;;;15.01;100.00;99562.66;4118284;28;20030;-72
2022/07/09 05:48:27;;;;;;;7.40;3.70;;;;;;;15.08;100.00;99568.31;4117571;28;20030;-72
2022/07/09 05:50:28;;;;;;;8.15;4.20;;;;;;;15.16;100.00;99558.84;4119032;28;20031;-72
2022/07/09 05:52:28;;;;;;;7.20;4.63;;;;;;;15.20;100.00;99556.09;4118229;28;20038;-72
2022/07/09 05:54:29;;;;;;;14.88;5.20;;;;;;;15.29;100.00;99562.16;4117537;28;20522;-72
2022/07/09 05:56:29;;;;;;;8.85;4.57;;;;;;;15.32;100.00;99561.41;4117751;28;20050;-72
2022/07/09 05:58:30;;;;;;;5.97;4.22;;;;;;;15.35;99.50;99560.63;4119148;28;20034;-72
2022/07/09 06:00:30;;;;;;;5.45;4.32;;;;;;;15.39;99.41;99555.88;4118932;28;20019;-72
2022/07/09 06:02:31;;;;;;;7.05;4.65;;;;;;;15.44;98.51;99565.88;4119001;28;20572;-72
2022/07/09 06:04:31;;;;;;;7.55;4.60;;;;;;;15.46;99.13;99558.72;4116976;28;20076;-72
2022/07/09 06:06:31;;;;;;;7.32;4.47;;;;;;;15.50;98.33;99552.38;4119337;28;20069;-72
2022/07/09 06:08:33;;;;;;;7.40;4.82;;;;;;;15.56;98.41;99559.22;4117007;28;20541;-72
2022/07/09 06:10:33;;;;;;;5.57;4.53;;;;;;;15.53;98.22;99560.78;4119069;28;20026;-72
2022/07/09 06:12:35;;;;;;;10.23;4.72;;;;;;;15.57;98.75;99553.25;4118547;28;20041;-72
2022/07/09 06:14:35;;;;;;;9.38;4.90;;;;;;;15.54;99.63;99551.22;4117265;28;20436;-72
2022/07/09 06:16:36;;;;;;;6.05;4.53;;;;;;;15.62;98.80;99552.09;4119311;28;20026;-72
2022/07/09 06:18:36;;;;;;;7.13;4.32;;;;;;;15.63;99.46;99554.50;4118923;28;20140;-72
2022/07/09 06:20:37;;;;;;;6.90;4.88;;;;;;;15.65;98.79;99546.56;4119768;28;20351;-72
2022/07/09 06:22:38;;;;;;;6.20;5.03;;;;;;;15.70;99.95;99550.97;4118433;28;20093;-72
2022/07/09 06:24:38;;;;;;;8.23;5.55;;;;;;;15.75;99.13;99545.06;4119132;28;20179;-72
2022/07/09 06:26:39;;;;;;;10.02;5.40;;;;;;;15.80;98.69;99544.69;4119283;28;20068;-72
2022/07/09 06:28:39;;;;;;;6.82;4.88;;;;;;;15.88;97.45;99546.34;4115888;28;20117;-72
2022/07/09 06:30:40;;;;;;;7.63;4.97;;;;;;;15.92;97.61;99543.59;4120670;28;20045;-72
2022/07/09 06:32:40;;;;;;;8.27;4.90;;;;;;;15.97;96.92;99552.41;4120522;28;20038;-72
2022/07/09 06:34:41;;;;;;;9.85;5.18;;;;;;;15.97;97.73;99546.81;4121611;28;20478;-72
2022/07/09 06:36:44;;;;;;;8.60;5.22;;;;;;;15.99;96.86;99544.44;4122278;28;20035;-72
2022/07/09 06:41:03;;;;;;;8.07;5.45;;;;;;;16.05;96.59;99544.84;4120665;28;20394;-72
2022/07/09 06:43:04;;;;;;;9.25;4.72;;;;;;;16.11;95.76;99543.31;4066248;28;20039;-72
2022/07/09 06:45:05;;;;;;;5.43;4.93;;;;;;;16.14;96.03;99539.75;4122414;28;20030;-72
2022/07/09 06:47:05;;;;;;;5.72;4.53;;;;;;;16.20;95.78;99540.97;4122959;28;20114;-72
2022/07/09 06:49:06;;;;;;;7.30;4.70;;;;;;;16.24;95.29;99538.19;4120889;28;20037;-72
2022/07/09 06:51:06;;;;;;;7.28;5.32;;;;;;;16.32;95.78;99539.03;4122435;28;20287;-71
2022/07/09 06:53:07;;;;;;;6.85;4.65;;;;;;;16.38;94.80;99540.25;4121953;28;20038;-72
2022/07/09 06:55:08;;;;;;;15.05;4.85;;;;;;;16.41;94.03;99539.50;4122056;28;20049;-72
2022/07/09 06:57:10;;;;;;;9.43;5.38;;;;;;;16.45;93.91;99537.50;4122975;28;20081;-72
2022/07/09 06:59:10;;;;;;;7.85;4.70;;;;;;;16.48;93.81;99539.53;4121805;28;20030;-71
2022/07/09 07:01:10;;;;;;;6.35;4.75;;;;;;;16.57;93.51;99548.34;4122786;28;20057;-72
2022/07/09 07:03:11;;;;;;;6.65;5.07;;;;;;;16.63;93.36;99543.16;4120825;28;20070;-71
2022/07/09 07:05:11;;;;;;;6.30;5.25;;;;;;;16.70;94.13;99546.00;4121030;28;20085;-71
2022/07/09 07:07:11;;;;;;;9.15;5.60;;;;;;;16.73;92.87;99545.25;4122328;28;20038;-71
2022/07/09 07:09:12;;;;;;;5.63;4.43;;;;;;;16.76;92.23;99547.25;4119904;28;20306;-71
2022/07/09 07:11:12;;;;;;;6.75;4.35;;;;;;;16.82;91.76;99542.88;4120102;28;20030;-72
2022/07/09 07:13:13;;;;;;;5.53;4.20;;;;;;;16.83;90.47;99542.47;4121673;28;20031;-71
2022/07/09 07:15:14;;;;;;;5.75;4.15;;;;;;;16.87;90.24;99548.06;4120429;28;20034;-72
2022/07/09 07:17:14;;;;;;;10.90;4.60;;;;;;;16.93;90.51;99540.13;4122399;28;20467;-72
2022/07/09 07:19:14;;;;;;;7.78;4.30;;;;;;;16.91;88.83;99540.50;4120915;28;20031;-72
2022/07/09 07:21:15;;;;;;;6.90;3.95;;;;;;;16.85;89.03;99540.09;4123023;28;20529;-71
2022/07/09 07:23:15;;;;;;;8.38;4.40;;;;;;;16.74;89.69;99544.84;4120027;28;20042;-72
2022/07/09 07:25:16;;;;;;;6.20;4.30;;;;;;;16.81;90.50;99535.69;4121756;28;20101;-72
2022/07/09 07:27:17;;;;;;;7.05;4.30;;;;;;;16.82;89.91;99540.88;4121385;28;20034;-72
2022/07/09 07:29:17;;;;;;;13.63;4.82;;;;;;;16.79;89.87;99540.84;4120383;28;20038;-72
2022/07/09 07:31:18;;;;;;;6.95;4.63;;;;;;;16.76;89.95;99533.28;4122840;28;20473;-72
2022/07/09 07:33:19;;;;;;;6.97;4.53;;;;;;;16.85;89.83;99530.91;4121911;28;20043;-72
2022/07/09 07:35:19;;;;;;;6.82;4.38;;;;;;;16.84;89.39;99524.50;4120741;28;20426;-72
2022/07/09 07:37:20;;;;;;;5.93;4.40;;;;;;;16.81;89.05;99525.31;4121374;28;20072;-72
2022/07/09 07:39:21;;;;;;;7.10;4.60;;;;;;;16.83;89.45;99525.72;4121816;28;20383;-72
2022/07/09 07:41:22;;;;;;;5.93;4.65;;;;;;;16.82;89.54;99512.94;4118620;28;20386;-72
2022/07/09 07:43:22;;;;;;;7.57;4.78;;;;;;;16.88;89.49;99515.31;4120340;28;20039;-72
2022/07/09 07:45:23;;;;;;;4.90;4.22;;;;;;;16.92;88.33;99516.94;4121889;28;20034;-72
2022/07/09 07:47:23;;;;;;;13.85;6.25;;;;;;;16.90;87.96;99516.56;4121611;28;20474;-72
2022/07/09 07:49:23;;;;;;;8.45;4.75;;;;;;;16.92;88.00;99513.34;4119652;28;20105;-72
2022/07/09 07:51:24;;;;;;;7.05;4.47;;;;;;;16.89;87.94;99514.16;4120970;28;20165;-72
2022/07/09 07:53:25;;;;;;;6.43;4.40;;;;;;;16.97;87.59;99524.16;4121179;28;20038;-72
2022/07/09 07:55:25;;;;;;;6.22;4.40;;;;;;;16.89;87.90;99522.53;4121363;28;20030;-72
2022/07/09 07:57:25;;;;;;;5.97;4.60;;;;;;;16.90;88.54;99524.94;4121586;28;20042;-72
2022/07/09 07:59:25;;;;;;;6.70;4.30;;;;;;;16.95;87.76;99523.72;4119994;28;20493;-72
2022/07/09 08:01:26;;;;;;;8.18;4.53;;;;;;;16.98;87.76;99518.16;4119306;28;20441;-72
2022/07/09 08:03:26;;;;;;;8.27;4.90;;;;;;;16.97;87.61;99521.38;4137205;28;20524;-72
2022/07/09 08:05:27;;;;;;;5.65;4.38;;;;;;;17.03;88.26;99516.97;4121876;28;20526;-72
2022/07/09 08:07:27;;;;;;;5.55;4.43;;;;;;;17.03;87.18;99523.34;4118349;28;20041;-72
2022/07/09 08:09:27;;;;;;;5.72;3.95;;;;;;;17.02;86.58;99518.16;4119775;28;20060;-72
2022/07/09 08:11:29;;;;;;;6.55;4.20;;;;;;;17.08;86.37;99520.19;4118441;28;20578;-72
2022/07/09 08:13:29;;;;;;;7.57;4.22;;;;;;;17.14;86.02;99517.81;4123005;28;20030;-72
2022/07/09 08:15:30;;;;;;;5.60;4.18;;;;;;;17.15;86.33;99510.22;4121285;28;20642;-72
2022/07/09 08:17:31;;;;;;;5.53;4.40;;;;;;;17.27;86.01;99512.63;4119853;28;20486;-72
2022/07/09 08:19:31;;;;;;;4.88;3.75;;;;;;;17.34;84.73;99510.63;4119598;28;20042;-72
2022/07/09 08:21:31;;;;;;;9.65;4.45;;;;;;;17.37;84.99;99504.22;4119344;28;20038;-72
2022/07/09 08:23:50;;;;;;;6.07;4.38;;;;;;;17.50;83.66;99509.44;4121907;28;20061;-72
2022/07/09 08:25:51;;;;;;;5.38;3.97;;;;;;;17.44;83.49;99511.81;4120679;28;20026;-72
2022/07/09 08:27:51;;;;;;;5.05;4.40;;;;;;;17.55;83.13;99498.66;4120821;28;20045;-72
2022/07/09 08:29:51;;;;;;;6.65;4.35;;;;;;;17.58;82.26;99511.81;4119912;28;20340;-72
2022/07/09 08:31:52;;;;;;;5.13;3.75;;;;;;;17.47;82.53;99502.66;4121744;28;20278;-72
2022/07/09 08:33:52;;;;;;;5.63;3.97;;;;;;;17.59;82.08;99509.84;4120422;28;20652;-72
2022/07/09 08:35:53;;;;;;;7.97;4.35;;;;;;;17.42;82.27;99500.25;4120009;28;20032;-72
2022/07/09 08:37:53;;;;;;;4.28;3.88;;;;;;;17.53;82.24;99511.41;4120853;28;20385;-72
2022/07/09 08:39:54;;;;;;;7.20;3.75;;;;;;;17.56;82.89;99510.63;4120642;28;20030;-72
2022/07/09 08:41:54;;;;;;;7.25;4.10;;;;;;;17.62;81.97;99507.00;4121347;28;20032;-72
2022/07/09 08:43:54;;;;;;;5.25;4.32;;;;;;;17.35;82.30;99503.81;4122348;28;20046;-72
2022/07/09 08:45:56;;;;;;;5.47;3.97;;;;;;;17.21;82.65;99500.22;4121385;28;20072;-72
2022/07/09 08:47:57;;;;;;;6.05;3.72;;;;;;;17.19;82.81;99502.63;4117333;28;20422;-72
2022/07/09 08:49:59;;;;;;;6.47;4.20;;;;;;;17.31;83.24;99503.03;4117939;28;20041;-72
2022/07/09 08:52:02;;;;;;;6.00;4.05;;;;;;;17.34;82.65;99493.03;4120439;28;20061;-72
2022/07/09 08:54:02;;;;;;;5.47;3.97;;;;;;;17.35;82.92;99501.03;4121864;28;20371;-72
2022/07/09 08:56:03;;;;;;;6.60;3.80;;;;;;;17.28;82.75;99498.22;4120101;28;20034;-72
2022/07/09 08:58:03;;;;;;;8.07;4.03;;;;;;;17.33;81.55;99495.03;4120257;28;20050;-72
2022/07/09 09:00:05;;;;;;;7.10;4.28;;;;;;;17.35;82.04;99491.84;4121013;28;20032;-72
2022/07/09 09:02:09;;;;;;;4.88;3.72;;;;;;;17.42;81.65;99505.84;4120286;28;20538;-72
2022/07/09 09:04:10;;;;;;;6.00;3.60;;;;;;;17.45;81.56;99505.03;4119925;28;20038;-72
2022/07/09 09:06:12;;;;;;;6.90;4.03;;;;;;;17.49;80.33;99500.25;4120218;28;20045;-72
2022/07/09 09:08:20;;;;;;;5.10;3.55;;;;;;;17.54;80.98;99490.63;4120749;28;20038;-72
2022/07/09 09:10:24;;;;;;;7.93;3.75;;;;;;;17.58;81.50;99491.44;4120074;28;20372;-72
2022/07/09 09:12:28;;;;;;;4.97;3.35;;;;;;;17.69;80.63;99501.41;4120666;28;20121;-72
2022/07/09 09:14:29;;;;;;;5.82;3.80;;;;;;;17.74;79.06;99494.66;4120618;28;20382;-72
2022/07/09 09:16:30;;;;;;;5.63;3.92;;;;;;;17.82;78.61;99495.44;4120344;28;20034;-72
2022/07/09 09:18:30;;;;;;;5.07;3.75;;;;;;;17.90;78.22;99499.84;4119287;28;20426;-72
2022/07/09 09:20:31;;;;;;;7.68;3.92;;;;;;;18.06;77.54;99491.00;4119922;28;20038;-72
2022/07/09 09:22:32;;;;;;;6.40;3.80;;;;;;;18.21;77.52;99490.56;4121123;28;20035;-72
2022/07/09 09:24:34;;;;;;;4.05;3.42;;;;;;;18.32;76.70;99484.91;4119088;28;20041;-72
2022/07/09 09:26:36;;;;;;;4.32;2.80;;;;;;;18.48;75.00;99478.84;4120388;28;20084;-72